createdAt,value
2017-08-13T00:00:02.249Z,20.00
2017-08-13T00:01:02.973Z,27.00
2017-08-13T00:02:03.690Z,28.00
2017-08-13T00:03:04.415Z,27.00
2017-08-13T00:04:05.133Z,21.00
2017-08-13T00:05:05.856Z,23.00
2017-08-13T00:06:06.578Z,23.00
2017-08-13T00:07:07.329Z,24.00
2017-08-13T00:08:08.044Z,25.00
2017-08-13T00:09:08.790Z,18.00
2017-08-13T00:10:09.510Z,23.00
2017-08-13T00:11:10.253Z,29.00
2017-08-13T00:12:10.974Z,27.00
2017-08-13T00:13:11.694Z,17.00
2017-08-13T00:14:12.418Z,26.00
2017-08-13T00:15:13.137Z,28.00
2017-08-13T00:16:13.858Z,25.00
2017-08-13T00:17:14.581Z,19.00
2017-08-13T00:18:15.306Z,20.00
2017-08-13T00:19:16.023Z,27.00
2017-08-13T00:20:16.746Z,25.00
2017-08-13T00:21:17.465Z,17.00
2017-08-13T00:22:18.206Z,27.00
2017-08-13T00:23:18.929Z,33.00
2017-08-13T00:24:19.670Z,21.00
2017-08-13T00:25:20.390Z,18.00
2017-08-13T00:26:21.114Z,19.00
2017-08-13T00:27:21.835Z,21.00
2017-08-13T00:28:22.557Z,23.00
2017-08-13T00:29:23.301Z,22.00
2017-08-13T00:30:24.021Z,24.00
2017-08-13T00:31:24.738Z,24.00
2017-08-13T00:32:25.462Z,19.00
2017-08-13T00:33:26.180Z,23.00
2017-08-13T00:34:26.904Z,25.00
2017-08-13T00:35:27.649Z,29.00
2017-08-13T00:36:28.390Z,26.00
2017-08-13T00:37:29.105Z,22.00
2017-08-13T00:38:29.828Z,21.00
2017-08-13T00:39:30.549Z,24.00
2017-08-13T00:40:31.272Z,22.00
2017-08-13T00:41:31.991Z,24.00
2017-08-13T00:42:32.719Z,45.00
2017-08-13T00:43:33.433Z,17.00
2017-08-13T00:44:34.154Z,28.00
2017-08-13T00:45:34.875Z,25.00
2017-08-13T00:46:35.617Z,26.00
2017-08-13T00:47:36.338Z,21.00
2017-08-13T00:48:37.060Z,24.00
2017-08-13T00:49:37.777Z,24.00
2017-08-13T00:50:38.501Z,28.00
2017-08-13T00:51:39.220Z,23.00
2017-08-13T00:52:39.939Z,25.00
2017-08-13T00:53:40.680Z,25.00
2017-08-13T00:54:41.403Z,27.00
2017-08-13T00:55:42.120Z,34.00
2017-08-13T00:56:42.841Z,27.00
2017-08-13T00:57:43.564Z,27.00
2017-08-13T00:58:44.280Z,30.00
2017-08-13T00:59:45.001Z,28.00
2017-08-13T01:00:45.724Z,27.00
2017-08-13T01:01:46.448Z,29.00
2017-08-13T01:02:47.170Z,32.00
2017-08-13T01:03:47.887Z,17.00
2017-08-13T01:04:48.609Z,24.00
2017-08-13T01:05:49.332Z,19.00
2017-08-13T01:06:50.056Z,26.00
2017-08-13T01:07:50.775Z,28.00
2017-08-13T01:08:51.499Z,31.00
2017-08-13T01:09:52.218Z,22.00
2017-08-13T01:10:52.959Z,20.00
2017-08-13T01:11:53.679Z,22.00
2017-08-13T01:12:54.402Z,22.00
2017-08-13T01:13:55.127Z,19.00
2017-08-13T01:14:55.846Z,28.00
2017-08-13T01:15:56.569Z,25.00
2017-08-13T01:16:57.289Z,28.00
2017-08-13T01:17:58.012Z,17.00
2017-08-13T01:18:58.733Z,23.00
2017-08-13T01:19:59.455Z,23.00
2017-08-13T01:21:00.176Z,20.00
2017-08-13T01:22:00.902Z,23.00
2017-08-13T01:23:01.641Z,19.00
2017-08-13T01:24:02.366Z,22.00
2017-08-13T01:25:03.086Z,33.00
2017-08-13T01:26:03.833Z,30.00
2017-08-13T01:27:04.551Z,24.00
2017-08-13T01:28:05.274Z,27.00
2017-08-13T01:29:05.992Z,30.00
2017-08-13T01:30:06.720Z,28.00
2017-08-13T01:31:07.438Z,25.00
2017-08-13T01:32:08.163Z,23.00
2017-08-13T01:33:08.885Z,31.00
2017-08-13T01:34:09.606Z,30.00
2017-08-13T01:35:10.329Z,35.00
2017-08-13T01:36:11.049Z,23.00
2017-08-13T01:37:11.769Z,27.00
2017-08-13T01:38:12.489Z,26.00
2017-08-13T01:39:13.235Z,19.00
2017-08-13T01:40:13.952Z,33.00
2017-08-13T01:41:14.697Z,22.00
2017-08-13T01:42:15.445Z,20.00
2017-08-13T01:43:16.167Z,46.00
2017-08-13T01:44:16.885Z,50.00
2017-08-13T01:45:17.605Z,20.00
2017-08-13T01:46:18.329Z,24.00
2017-08-13T01:47:19.072Z,24.00
2017-08-13T01:48:19.794Z,22.00
2017-08-13T01:49:20.517Z,25.00
2017-08-13T01:50:21.265Z,29.00
2017-08-13T01:51:22.012Z,24.00
2017-08-13T01:52:22.734Z,16.00
2017-08-13T01:53:23.456Z,19.00
2017-08-13T01:54:24.174Z,30.00
2017-08-13T01:55:24.896Z,31.00
2017-08-13T01:56:25.617Z,28.00
2017-08-13T01:57:26.363Z,25.00
2017-08-13T01:58:27.082Z,20.00
2017-08-13T01:59:27.806Z,19.00
2017-08-13T02:00:28.524Z,24.00
2017-08-13T02:01:29.247Z,18.00
2017-08-13T02:02:29.968Z,28.00
2017-08-13T02:03:30.716Z,23.00
2017-08-13T02:04:31.439Z,31.00
2017-08-13T02:05:32.164Z,21.00
2017-08-13T02:06:32.892Z,21.00
2017-08-13T02:07:33.605Z,19.00
2017-08-13T02:08:34.329Z,23.00
2017-08-13T02:09:35.050Z,24.00
2017-08-13T02:10:35.774Z,27.00
2017-08-13T02:11:36.493Z,19.00
2017-08-13T02:12:37.216Z,17.00
2017-08-13T02:13:37.963Z,21.00
2017-08-13T02:14:38.684Z,31.00
2017-08-13T02:15:39.404Z,26.00
2017-08-13T02:16:40.122Z,27.00
2017-08-13T02:17:40.846Z,22.00
2017-08-13T02:18:41.568Z,19.00
2017-08-13T02:19:42.291Z,17.00
2017-08-13T02:20:43.043Z,22.00
2017-08-13T02:21:43.759Z,16.00
2017-08-13T02:22:44.483Z,23.00
2017-08-13T02:23:45.206Z,20.00
2017-08-13T02:24:45.930Z,21.00
2017-08-13T02:25:46.644Z,19.00
2017-08-13T02:26:47.367Z,24.00
2017-08-13T02:27:48.088Z,17.00
2017-08-13T02:28:48.810Z,31.00
2017-08-13T02:29:49.535Z,22.00
2017-08-13T02:30:50.259Z,32.00
2017-08-13T02:31:50.982Z,23.00
2017-08-13T02:32:51.725Z,22.00
2017-08-13T02:33:52.446Z,18.00
2017-08-13T02:34:53.167Z,26.00
2017-08-13T02:35:53.891Z,34.00
2017-08-13T02:36:54.614Z,19.00
2017-08-13T02:37:55.360Z,32.00
2017-08-13T02:38:56.079Z,21.00
2017-08-13T02:39:56.803Z,18.00
2017-08-13T02:40:57.529Z,27.00
2017-08-13T02:41:58.250Z,29.00
2017-08-13T02:42:58.970Z,18.00
2017-08-13T02:43:59.712Z,21.00
2017-08-13T02:45:00.439Z,18.00
2017-08-13T02:46:01.159Z,26.00
2017-08-13T02:47:01.881Z,27.00
2017-08-13T02:48:02.605Z,23.00
2017-08-13T02:49:03.324Z,16.00
2017-08-13T02:50:04.070Z,16.00
2017-08-13T02:51:04.791Z,17.00
2017-08-13T02:52:05.513Z,16.00
2017-08-13T02:53:06.236Z,20.00
2017-08-13T02:54:06.957Z,22.00
2017-08-13T02:55:07.677Z,57.00
2017-08-13T02:56:08.421Z,20.00
2017-08-13T02:57:09.165Z,23.00
2017-08-13T02:58:09.908Z,18.00
2017-08-13T02:59:10.654Z,15.00
2017-08-13T03:00:11.378Z,15.00
2017-08-13T03:01:12.097Z,24.00
2017-08-13T03:02:12.845Z,38.00
2017-08-13T03:03:13.571Z,18.00
2017-08-13T03:04:14.318Z,20.00
2017-08-13T03:05:15.038Z,20.00
2017-08-13T03:06:15.760Z,19.00
2017-08-13T03:07:16.506Z,26.00
2017-08-13T03:08:17.227Z,15.00
2017-08-13T03:09:17.984Z,21.00
2017-08-13T03:10:18.697Z,21.00
2017-08-13T03:11:19.420Z,25.00
2017-08-13T03:12:20.143Z,30.00
2017-08-13T03:13:20.884Z,24.00
2017-08-13T03:14:21.607Z,14.00
2017-08-13T03:15:22.353Z,20.00
2017-08-13T03:16:23.077Z,18.00
2017-08-13T03:17:23.796Z,29.00
2017-08-13T03:18:24.541Z,34.00
2017-08-13T03:19:25.262Z,18.00
2017-08-13T03:20:25.984Z,17.00
2017-08-13T03:21:26.706Z,23.00
2017-08-13T03:22:27.426Z,19.00
2017-08-13T03:23:28.151Z,26.00
2017-08-13T03:24:28.871Z,23.00
2017-08-13T03:25:29.592Z,31.00
2017-08-13T03:26:30.317Z,28.00
2017-08-13T03:27:31.037Z,25.00
2017-08-13T03:28:31.758Z,18.00
2017-08-13T03:29:32.482Z,23.00
2017-08-13T03:30:33.203Z,16.00
2017-08-13T03:31:33.927Z,20.00
2017-08-13T03:32:34.673Z,33.00
2017-08-13T03:33:35.421Z,19.00
2017-08-13T03:34:36.166Z,20.00
2017-08-13T03:35:36.912Z,29.00
2017-08-13T03:36:37.632Z,20.00
2017-08-13T03:37:38.379Z,17.00
2017-08-13T03:38:39.101Z,28.00
2017-08-13T03:39:39.846Z,20.00
2017-08-13T03:40:40.568Z,23.00
2017-08-13T03:41:41.291Z,26.00
2017-08-13T03:42:42.012Z,19.00
2017-08-13T03:43:42.759Z,23.00
2017-08-13T03:44:43.479Z,19.00
2017-08-13T03:45:44.205Z,25.00
2017-08-13T03:46:44.920Z,19.00
2017-08-13T03:47:45.644Z,21.00
2017-08-13T03:48:46.389Z,22.00
2017-08-13T03:49:47.113Z,25.00
2017-08-13T03:50:47.858Z,22.00
2017-08-13T03:51:48.583Z,22.00
2017-08-13T03:52:49.326Z,18.00
2017-08-13T03:53:50.052Z,25.00
2017-08-13T03:54:50.801Z,29.00
2017-08-13T03:55:51.548Z,23.00
2017-08-13T03:56:52.270Z,30.00
2017-08-13T03:57:53.016Z,16.00
2017-08-13T03:58:53.764Z,23.00
2017-08-13T03:59:54.483Z,22.00
2017-08-13T04:00:55.208Z,26.00
2017-08-13T04:01:55.933Z,18.00
2017-08-13T04:02:56.672Z,27.00
2017-08-13T04:03:57.420Z,23.00
2017-08-13T04:04:58.143Z,20.00
2017-08-13T04:05:58.869Z,17.00
2017-08-13T04:06:59.619Z,23.00
2017-08-13T04:08:00.367Z,23.00
2017-08-13T04:09:01.086Z,24.00
2017-08-13T04:10:01.811Z,19.00
2017-08-13T04:11:02.531Z,21.00
2017-08-13T04:12:03.255Z,25.00
2017-08-13T04:13:03.995Z,22.00
2017-08-13T04:14:04.718Z,17.00
2017-08-13T04:15:05.441Z,21.00
2017-08-13T04:16:06.169Z,24.00
2017-08-13T04:17:06.896Z,29.00
2017-08-13T04:18:07.621Z,21.00
2017-08-13T04:19:08.342Z,24.00
2017-08-13T04:20:09.090Z,27.00
2017-08-13T04:21:09.812Z,26.00
2017-08-13T04:22:10.536Z,30.00
2017-08-13T04:23:11.264Z,26.00
2017-08-13T04:24:11.989Z,30.00
2017-08-13T04:25:12.736Z,34.00
2017-08-13T04:26:13.461Z,33.00
2017-08-13T04:27:14.184Z,22.00
2017-08-13T04:28:14.913Z,29.00
2017-08-13T04:29:15.643Z,23.00
2017-08-13T04:30:16.386Z,31.00
2017-08-13T04:31:17.112Z,19.00
2017-08-13T04:32:17.838Z,30.00
2017-08-13T04:33:18.561Z,28.00
2017-08-13T04:34:19.288Z,28.00
2017-08-13T04:35:20.014Z,22.00
2017-08-13T04:36:20.741Z,30.00
2017-08-13T04:37:21.488Z,27.00
2017-08-13T04:38:22.216Z,25.00
2017-08-13T04:39:22.941Z,24.00
2017-08-13T04:40:23.661Z,34.00
2017-08-13T04:41:24.386Z,28.00
2017-08-13T04:42:25.114Z,25.00
2017-08-13T04:43:25.863Z,32.00
2017-08-13T04:44:26.592Z,21.00
2017-08-13T04:45:27.339Z,25.00
2017-08-13T04:46:28.068Z,21.00
2017-08-13T04:47:28.793Z,24.00
2017-08-13T04:48:29.518Z,27.00
2017-08-13T04:49:30.245Z,18.00
2017-08-13T04:50:30.969Z,24.00
2017-08-13T04:51:31.719Z,28.00
2017-08-13T04:52:32.470Z,25.00
2017-08-13T04:53:33.195Z,18.00
2017-08-13T04:54:33.918Z,24.00
2017-08-13T04:55:34.650Z,22.00
2017-08-13T04:56:35.373Z,33.00
2017-08-13T04:57:36.125Z,25.00
2017-08-13T04:58:36.847Z,37.00
2017-08-13T04:59:37.576Z,21.00
2017-08-13T05:00:38.302Z,24.00
2017-08-13T05:01:39.029Z,23.00
2017-08-13T05:02:39.788Z,26.00
2017-08-13T05:03:40.534Z,21.00
2017-08-13T05:04:41.260Z,20.00
2017-08-13T05:05:41.989Z,29.00
2017-08-13T05:06:42.715Z,22.00
2017-08-13T05:07:43.440Z,24.00
2017-08-13T05:08:44.165Z,31.00
2017-08-13T05:09:44.920Z,18.00
2017-08-13T05:10:45.647Z,23.00
2017-08-13T05:11:46.400Z,22.00
2017-08-13T05:12:47.125Z,34.00
2017-08-13T05:13:47.874Z,29.00
2017-08-13T05:14:48.599Z,18.00
2017-08-13T05:15:49.325Z,25.00
2017-08-13T05:16:50.077Z,20.00
2017-08-13T05:17:50.801Z,25.00
2017-08-13T05:18:51.546Z,25.00
2017-08-13T05:19:52.276Z,22.00
2017-08-13T05:20:53.022Z,29.00
2017-08-13T05:21:53.771Z,34.00
2017-08-13T05:22:54.496Z,29.00
2017-08-13T05:23:55.226Z,26.00
2017-08-13T05:24:55.950Z,24.00
2017-08-13T05:25:56.675Z,30.00
2017-08-13T05:26:57.406Z,19.00
2017-08-13T05:27:58.135Z,23.00
2017-08-13T05:28:58.863Z,32.00
2017-08-13T05:29:59.588Z,23.00
2017-08-13T05:31:00.313Z,17.00
2017-08-13T05:32:01.058Z,25.00
2017-08-13T05:33:01.792Z,25.00
2017-08-13T05:34:02.517Z,32.00
2017-08-13T05:35:03.245Z,23.00
2017-08-13T05:36:03.983Z,27.00
2017-08-13T05:37:04.695Z,19.00
2017-08-13T05:38:05.426Z,34.00
2017-08-13T05:39:06.174Z,31.00
2017-08-13T05:40:06.899Z,28.00
2017-08-13T05:41:07.630Z,25.00
2017-08-13T05:42:08.380Z,30.00
2017-08-13T05:43:09.117Z,28.00
2017-08-13T05:44:09.833Z,24.00
2017-08-13T05:45:10.580Z,22.00
2017-08-13T05:46:11.308Z,24.00
2017-08-13T05:47:12.035Z,28.00
2017-08-13T05:48:12.786Z,23.00
2017-08-13T05:49:13.510Z,26.00
2017-08-13T05:50:14.237Z,23.00
2017-08-13T05:51:14.964Z,23.00
2017-08-13T05:52:15.691Z,26.00
2017-08-13T05:53:16.420Z,30.00
2017-08-13T05:54:17.154Z,24.00
2017-08-13T05:55:17.875Z,28.00
2017-08-13T05:56:18.629Z,19.00
2017-08-13T05:57:19.356Z,23.00
2017-08-13T05:58:20.080Z,24.00
2017-08-13T05:59:20.810Z,26.00
2017-08-13T06:00:21.537Z,17.00
2017-08-13T06:01:22.267Z,24.00
2017-08-13T06:02:22.996Z,21.00
2017-08-13T06:03:23.721Z,35.00
2017-08-13T06:04:24.449Z,27.00
2017-08-13T06:05:25.176Z,20.00
2017-08-13T06:06:25.910Z,25.00
2017-08-13T06:07:26.632Z,24.00
2017-08-13T06:08:27.361Z,19.00
2017-08-13T06:09:28.089Z,25.00
2017-08-13T06:10:28.841Z,30.00
2017-08-13T06:11:29.567Z,20.00
2017-08-13T06:12:30.295Z,21.00
2017-08-13T06:13:31.045Z,19.00
2017-08-13T06:14:31.775Z,26.00
2017-08-13T06:15:32.503Z,16.00
2017-08-13T06:16:33.232Z,19.00
2017-08-13T06:17:33.963Z,26.00
2017-08-13T06:18:34.687Z,31.00
2017-08-13T06:19:35.424Z,25.00
2017-08-13T06:20:36.157Z,17.00
2017-08-13T06:21:36.878Z,17.00
2017-08-13T06:22:37.607Z,26.00
2017-08-13T06:23:38.335Z,22.00
2017-08-13T06:24:39.070Z,11.00
2017-08-13T06:25:39.793Z,23.00
2017-08-13T06:26:40.521Z,11.00
2017-08-13T06:27:41.273Z,16.00
2017-08-13T06:28:42.005Z,20.00
2017-08-13T06:29:42.738Z,21.00
2017-08-13T06:30:43.460Z,13.00
2017-08-13T06:31:44.189Z,22.00
2017-08-13T06:32:44.916Z,19.00
2017-08-13T06:33:45.647Z,14.00
2017-08-13T06:34:46.371Z,21.00
2017-08-13T06:35:47.100Z,13.00
2017-08-13T06:36:47.829Z,29.00
2017-08-13T06:37:48.559Z,13.00
2017-08-13T06:38:49.295Z,10.00
2017-08-13T06:39:50.024Z,19.00
2017-08-13T06:40:50.752Z,13.00
2017-08-13T06:41:51.482Z,16.00
2017-08-13T06:42:52.207Z,12.00
2017-08-13T06:43:52.938Z,20.00
2017-08-13T06:44:53.691Z,13.00
2017-08-13T06:45:54.418Z,16.00
2017-08-13T06:46:55.169Z,16.00
2017-08-13T06:47:55.899Z,20.00
2017-08-13T06:48:56.632Z,14.00
2017-08-13T06:49:57.382Z,24.00
2017-08-13T06:50:58.112Z,20.00
2017-08-13T06:51:58.857Z,18.00
2017-08-13T06:52:59.565Z,17.00
2017-08-13T06:54:00.299Z,22.00
2017-08-13T06:55:01.025Z,11.00
2017-08-13T06:56:01.772Z,14.00
2017-08-13T06:57:02.500Z,24.00
2017-08-13T06:58:03.233Z,17.00
2017-08-13T06:59:03.964Z,9.00
2017-08-13T07:00:04.707Z,25.00
2017-08-13T07:01:05.440Z,11.00
2017-08-13T07:02:06.168Z,25.00
2017-08-13T07:03:06.899Z,20.00
2017-08-13T07:04:07.633Z,11.00
2017-08-13T07:05:08.363Z,14.00
2017-08-13T07:06:09.089Z,12.00
2017-08-13T07:07:09.821Z,15.00
2017-08-13T07:08:10.554Z,19.00
2017-08-13T07:09:11.284Z,7.00
2017-08-13T07:10:12.012Z,7.00
2017-08-13T07:11:12.766Z,7.00
2017-08-13T07:12:13.499Z,19.00
2017-08-13T07:13:14.234Z,14.00
2017-08-13T07:14:14.971Z,21.00
2017-08-13T07:15:15.697Z,8.00
2017-08-13T07:16:16.432Z,8.00
2017-08-13T07:17:17.187Z,14.00
2017-08-13T07:18:17.941Z,17.00
2017-08-13T07:19:18.674Z,9.00
2017-08-13T07:20:19.402Z,9.00
2017-08-13T07:21:20.138Z,11.00
2017-08-13T07:22:20.871Z,9.00
2017-08-13T07:23:21.602Z,5.00
2017-08-13T07:24:22.339Z,14.00
2017-08-13T07:25:23.067Z,9.00
2017-08-13T07:26:23.805Z,11.00
2017-08-13T07:27:24.539Z,7.00
2017-08-13T07:28:25.266Z,7.00
2017-08-13T07:29:26.021Z,8.00
2017-08-13T07:30:26.777Z,6.00
2017-08-13T07:31:27.510Z,7.00
2017-08-13T07:32:28.244Z,13.00
2017-08-13T07:33:29.000Z,17.00
2017-08-13T07:34:29.733Z,11.00
2017-08-13T07:35:30.469Z,6.00
2017-08-13T07:36:31.202Z,9.00
2017-08-13T07:37:31.933Z,6.00
2017-08-13T07:38:32.669Z,11.00
2017-08-13T07:39:33.401Z,5.00
2017-08-13T07:40:34.137Z,4.00
2017-08-13T07:41:34.897Z,14.00
2017-08-13T07:42:35.630Z,11.00
2017-08-13T07:43:36.392Z,7.00
2017-08-13T07:44:37.126Z,22.00
2017-08-13T07:45:37.863Z,10.00
2017-08-13T07:46:38.599Z,12.00
2017-08-13T07:47:39.335Z,11.00
2017-08-13T07:48:40.075Z,11.00
2017-08-13T07:49:40.832Z,12.00
2017-08-13T07:50:41.594Z,5.00
2017-08-13T07:51:42.332Z,5.00
2017-08-13T07:52:43.071Z,10.00
2017-08-13T07:53:43.811Z,6.00
2017-08-13T07:54:44.557Z,3.00
2017-08-13T07:55:45.297Z,8.00
2017-08-13T07:56:46.038Z,5.00
2017-08-13T07:57:46.804Z,12.00
2017-08-13T07:58:47.548Z,8.00
2017-08-13T07:59:48.285Z,8.00
2017-08-13T08:00:49.030Z,4.00
2017-08-13T08:01:49.771Z,11.00
2017-08-13T08:02:50.517Z,4.00
2017-08-13T08:03:51.256Z,11.00
2017-08-13T08:04:52.003Z,7.00
2017-08-13T08:05:52.744Z,10.00
2017-08-13T08:06:53.489Z,9.00
2017-08-13T08:07:54.254Z,9.00
2017-08-13T08:08:55.000Z,6.00
2017-08-13T08:09:55.765Z,4.00
2017-08-13T08:10:56.516Z,7.00
2017-08-13T08:11:57.256Z,8.00
2017-08-13T08:12:57.997Z,3.00
2017-08-13T08:13:58.740Z,6.00
2017-08-13T08:14:59.484Z,4.00
2017-08-13T08:16:00.219Z,8.00
2017-08-13T08:17:00.962Z,4.00
2017-08-13T08:18:01.703Z,5.00
2017-08-13T08:19:02.439Z,7.00
2017-08-13T08:20:03.181Z,7.00
2017-08-13T08:21:03.924Z,7.00
2017-08-13T08:22:04.667Z,4.00
2017-08-13T08:23:05.409Z,7.00
2017-08-13T08:24:06.149Z,7.00
2017-08-13T08:25:06.892Z,4.00
2017-08-13T08:26:07.653Z,8.00
2017-08-13T08:27:08.395Z,5.00
2017-08-13T08:28:09.158Z,6.00
2017-08-13T08:29:09.897Z,5.00
2017-08-13T08:30:10.641Z,6.00
2017-08-13T08:31:11.399Z,4.00
2017-08-13T08:32:12.140Z,6.00
2017-08-13T08:33:12.882Z,15.00
2017-08-13T08:34:13.621Z,8.00
2017-08-13T08:35:14.361Z,4.00
2017-08-13T08:36:15.129Z,9.00
2017-08-13T08:37:15.871Z,7.00
2017-08-13T08:38:16.613Z,16.00
2017-08-13T08:39:17.359Z,6.00
2017-08-13T08:40:18.100Z,9.00
2017-08-13T08:41:18.869Z,20.00
2017-08-13T08:42:19.612Z,4.00
2017-08-13T08:43:20.369Z,9.00
2017-08-13T08:44:21.097Z,9.00
2017-08-13T08:45:21.838Z,8.00
2017-08-13T08:46:22.605Z,19.00
2017-08-13T08:47:23.346Z,6.00
2017-08-13T08:48:24.086Z,8.00
2017-08-13T08:49:24.829Z,6.00
2017-08-13T08:50:25.594Z,6.00
2017-08-13T08:51:26.333Z,6.00
2017-08-13T08:52:27.078Z,5.00
2017-08-13T08:53:27.815Z,6.00
2017-08-13T08:54:28.559Z,7.00
2017-08-13T08:55:29.302Z,4.00
2017-08-13T08:56:30.043Z,3.00
2017-08-13T08:57:30.784Z,5.00
2017-08-13T08:58:31.523Z,8.00
2017-08-13T08:59:32.271Z,6.00
2017-08-13T09:00:33.033Z,13.00
2017-08-13T09:01:33.777Z,5.00
2017-08-13T09:02:34.528Z,10.00
2017-08-13T09:03:35.266Z,14.00
2017-08-13T09:04:36.031Z,12.00
2017-08-13T09:05:36.773Z,6.00
2017-08-13T09:06:37.512Z,16.00
2017-08-13T09:07:38.259Z,7.00
2017-08-13T09:08:39.001Z,6.00
2017-08-13T09:09:39.740Z,8.00
2017-08-13T09:10:40.478Z,12.00
2017-08-13T09:11:41.223Z,4.00
2017-08-13T09:12:41.988Z,8.00
2017-08-13T09:13:42.731Z,15.00
2017-08-13T09:14:43.496Z,9.00
2017-08-13T09:15:44.237Z,8.00
2017-08-13T09:16:44.993Z,7.00
2017-08-13T09:17:45.748Z,4.00
2017-08-13T09:18:46.486Z,11.00
2017-08-13T09:19:47.250Z,9.00
2017-08-13T09:20:47.992Z,3.00
2017-08-13T09:21:48.737Z,4.00
2017-08-13T09:22:49.478Z,7.00
2017-08-13T09:23:50.219Z,9.00
2017-08-13T09:24:50.962Z,12.00
2017-08-13T09:25:51.704Z,6.00
2017-08-13T09:26:52.442Z,10.00
2017-08-13T09:27:53.187Z,8.00
2017-08-13T09:28:53.951Z,7.00
2017-08-13T09:29:54.692Z,9.00
2017-08-13T09:30:55.440Z,5.00
2017-08-13T09:31:56.184Z,6.00
2017-08-13T09:32:56.927Z,7.00
2017-08-13T09:33:57.672Z,5.00
2017-08-13T09:34:58.414Z,7.00
2017-08-13T09:35:59.154Z,5.00
2017-08-13T09:36:59.898Z,6.00
2017-08-13T09:38:00.657Z,7.00
2017-08-13T09:39:01.399Z,10.00
2017-08-13T09:40:02.147Z,14.00
2017-08-13T09:41:02.882Z,7.00
2017-08-13T09:42:03.633Z,9.00
2017-08-13T09:43:04.370Z,6.00
2017-08-13T09:44:05.115Z,7.00
2017-08-13T09:45:05.853Z,5.00
2017-08-13T09:46:06.599Z,8.00
2017-08-13T09:47:07.362Z,6.00
2017-08-13T09:48:08.106Z,8.00
2017-08-13T09:49:08.846Z,8.00
2017-08-13T09:50:09.589Z,5.00
2017-08-13T09:51:10.332Z,5.00
2017-08-13T09:52:11.072Z,11.00
2017-08-13T09:53:11.817Z,4.00
2017-08-13T09:54:12.560Z,8.00
2017-08-13T09:55:13.326Z,5.00
2017-08-13T09:56:14.071Z,9.00
2017-08-13T09:57:14.819Z,7.00
2017-08-13T09:58:15.580Z,7.00
2017-08-13T09:59:16.318Z,4.00
2017-08-13T10:00:17.063Z,14.00
2017-08-13T10:01:17.808Z,10.00
2017-08-13T10:02:18.573Z,6.00
2017-08-13T10:03:19.312Z,5.00
2017-08-13T10:04:20.076Z,4.00
2017-08-13T10:05:20.831Z,4.00
2017-08-13T10:06:21.591Z,5.00
2017-08-13T10:07:22.335Z,4.00
2017-08-13T10:08:23.080Z,21.00
2017-08-13T10:09:23.832Z,7.00
2017-08-13T10:10:24.603Z,6.00
2017-08-13T10:11:25.346Z,5.00
2017-08-13T10:12:26.092Z,7.00
2017-08-13T10:13:26.837Z,5.00
2017-08-13T10:14:27.586Z,5.00
2017-08-13T10:15:28.332Z,5.00
2017-08-13T10:16:29.082Z,6.00
2017-08-13T10:17:29.832Z,6.00
2017-08-13T10:18:30.576Z,4.00
2017-08-13T10:19:31.324Z,7.00
2017-08-13T10:20:32.067Z,3.00
2017-08-13T10:21:32.814Z,3.00
2017-08-13T10:22:33.576Z,3.00
2017-08-13T10:23:34.339Z,6.00
2017-08-13T10:24:35.159Z,6.00
2017-08-13T10:25:35.852Z,3.00
2017-08-13T10:26:36.591Z,7.00
2017-08-13T10:27:37.336Z,6.00
2017-08-13T10:28:38.102Z,12.00
2017-08-13T10:29:38.841Z,3.00
2017-08-13T10:30:39.591Z,5.00
2017-08-13T10:31:40.332Z,3.00
2017-08-13T10:32:41.088Z,3.00
2017-08-13T10:33:41.834Z,3.00
2017-08-13T10:34:42.601Z,3.00
2017-08-13T10:35:43.347Z,3.00
2017-08-13T10:36:44.092Z,6.00
2017-08-13T10:37:44.834Z,10.00
2017-08-13T10:38:45.572Z,5.00
2017-08-13T10:39:46.309Z,5.00
2017-08-13T10:40:47.047Z,8.00
2017-08-13T10:41:47.783Z,9.00
2017-08-13T10:42:48.544Z,5.00
2017-08-13T10:43:49.278Z,5.00
2017-08-13T10:44:50.019Z,7.00
2017-08-13T10:45:50.749Z,3.00
2017-08-13T10:46:51.491Z,16.00
2017-08-13T10:47:52.230Z,3.00
2017-08-13T10:48:52.991Z,7.00
2017-08-13T10:49:53.725Z,6.00
2017-08-13T10:50:54.460Z,9.00
2017-08-13T10:51:55.201Z,3.00
2017-08-13T10:52:55.935Z,4.00
2017-08-13T10:53:56.668Z,2.00
2017-08-13T10:54:57.426Z,8.00
2017-08-13T10:55:58.187Z,3.00
2017-08-13T10:56:58.922Z,6.00
2017-08-13T10:57:59.658Z,3.00
2017-08-13T10:59:00.402Z,12.00
2017-08-13T11:00:01.131Z,8.00
2017-08-13T11:01:01.872Z,4.00
2017-08-13T11:02:02.612Z,4.00
2017-08-13T11:03:03.370Z,4.00
2017-08-13T11:04:04.111Z,6.00
2017-08-13T11:05:04.852Z,4.00
2017-08-13T11:06:05.585Z,4.00
2017-08-13T11:07:06.324Z,4.00
2017-08-13T11:08:07.060Z,18.00
2017-08-13T11:09:07.799Z,8.00
2017-08-13T11:10:08.536Z,3.00
2017-08-13T11:11:09.299Z,4.00
2017-08-13T11:12:10.032Z,5.00
2017-08-13T11:13:10.794Z,8.00
2017-08-13T11:14:11.531Z,5.00
2017-08-13T11:15:12.266Z,7.00
2017-08-13T11:16:13.005Z,5.00
2017-08-13T11:17:13.744Z,5.00
2017-08-13T11:18:14.483Z,4.00
2017-08-13T11:19:15.228Z,4.00
2017-08-13T11:20:15.992Z,6.00
2017-08-13T11:21:16.756Z,6.00
2017-08-13T11:22:17.496Z,4.00
2017-08-13T11:23:18.231Z,3.00
2017-08-13T11:24:18.971Z,4.00
2017-08-13T11:25:19.707Z,7.00
2017-08-13T11:26:20.474Z,6.00
2017-08-13T11:27:21.212Z,5.00
2017-08-13T11:28:21.950Z,4.00
2017-08-13T11:29:22.687Z,3.00
2017-08-13T11:30:23.431Z,18.00
2017-08-13T11:31:24.167Z,4.00
2017-08-13T11:32:24.906Z,3.00
2017-08-13T11:33:25.648Z,3.00
2017-08-13T11:34:26.390Z,9.00
2017-08-13T11:35:27.132Z,9.00
2017-08-13T11:36:27.875Z,3.00
2017-08-13T11:37:28.615Z,4.00
2017-08-13T11:38:29.356Z,4.00
2017-08-13T11:39:30.099Z,3.00
2017-08-13T11:40:30.864Z,6.00
2017-08-13T11:41:31.606Z,3.00
2017-08-13T11:42:32.342Z,2.00
2017-08-13T11:43:33.084Z,3.00
2017-08-13T11:44:33.824Z,3.00
2017-08-13T11:45:34.585Z,3.00
2017-08-13T11:46:35.350Z,9.00
2017-08-13T11:47:36.114Z,3.00
2017-08-13T11:48:36.857Z,10.00
2017-08-13T11:49:37.596Z,7.00
2017-08-13T11:50:38.341Z,5.00
2017-08-13T11:51:39.107Z,4.00
2017-08-13T11:52:39.847Z,2.00
2017-08-13T11:53:40.592Z,4.00
2017-08-13T11:54:41.330Z,2.00
2017-08-13T11:55:42.073Z,4.00
2017-08-13T11:56:42.819Z,3.00
2017-08-13T11:57:43.587Z,11.00
2017-08-13T11:58:44.327Z,3.00
2017-08-13T11:59:45.093Z,4.00
2017-08-13T12:00:45.835Z,3.00
2017-08-13T12:01:46.579Z,3.00
2017-08-13T12:02:47.324Z,8.00
2017-08-13T12:03:48.069Z,9.00
2017-08-13T12:04:48.808Z,2.00
2017-08-13T12:05:49.553Z,3.00
2017-08-13T12:06:50.296Z,3.00
2017-08-13T12:07:51.039Z,3.00
2017-08-13T12:08:51.807Z,4.00
2017-08-13T12:09:52.550Z,3.00
2017-08-13T12:10:53.296Z,3.00
2017-08-13T12:11:54.038Z,9.00
2017-08-13T12:12:54.804Z,3.00
2017-08-13T12:13:55.544Z,3.00
2017-08-13T12:14:56.288Z,6.00
2017-08-13T12:15:57.037Z,5.00
2017-08-13T12:16:57.803Z,6.00
2017-08-13T12:17:58.580Z,4.00
2017-08-13T12:18:59.327Z,3.00
2017-08-13T12:20:00.078Z,4.00
2017-08-13T12:21:00.834Z,3.00
2017-08-13T12:22:01.590Z,4.00
2017-08-13T12:23:02.338Z,3.00
2017-08-13T12:24:03.096Z,6.00
2017-08-13T12:25:03.848Z,3.00
2017-08-13T12:26:04.601Z,3.00
2017-08-13T12:27:05.352Z,7.00
2017-08-13T12:28:06.098Z,2.00
2017-08-13T12:29:06.847Z,3.00
2017-08-13T12:30:07.600Z,3.00
2017-08-13T12:31:08.368Z,5.00
2017-08-13T12:32:09.117Z,3.00
2017-08-13T12:33:09.871Z,6.00
2017-08-13T12:34:10.619Z,3.00
2017-08-13T12:35:11.370Z,3.00
2017-08-13T12:36:12.124Z,3.00
2017-08-13T12:37:12.873Z,4.00
2017-08-13T12:38:13.624Z,3.00
2017-08-13T12:39:14.372Z,3.00
2017-08-13T12:40:15.124Z,3.00
2017-08-13T12:41:15.895Z,2.00
2017-08-13T12:42:16.645Z,6.00
2017-08-13T12:43:17.390Z,3.00
2017-08-13T12:44:18.146Z,3.00
2017-08-13T12:45:18.900Z,6.00
2017-08-13T12:46:19.641Z,3.00
2017-08-13T12:47:20.392Z,3.00
2017-08-13T12:48:21.144Z,8.00
2017-08-13T12:49:21.884Z,9.00
2017-08-13T12:50:22.634Z,8.00
2017-08-13T12:51:23.372Z,8.00
2017-08-13T12:52:24.112Z,8.00
2017-08-13T12:53:24.879Z,4.00
2017-08-13T12:54:25.626Z,9.00
2017-08-13T12:55:26.388Z,5.00
2017-08-13T12:56:27.129Z,4.00
2017-08-13T12:57:27.892Z,9.00
2017-08-13T12:58:28.630Z,4.00
2017-08-13T12:59:29.393Z,6.00
2017-08-13T13:00:30.129Z,6.00
2017-08-13T13:01:30.867Z,6.00
2017-08-13T13:02:31.636Z,10.00
2017-08-13T13:03:32.370Z,11.00
2017-08-13T13:04:33.105Z,6.00
2017-08-13T13:05:33.846Z,9.00
2017-08-13T13:06:34.582Z,11.00
2017-08-13T13:07:35.321Z,8.00
2017-08-13T13:08:36.084Z,12.00
2017-08-13T13:09:36.820Z,6.00
2017-08-13T13:10:37.558Z,10.00
2017-08-13T13:11:38.294Z,8.00